sensor_id;sensor_type;location;lat;lon;timestamp;temperature;humidity
67182;DHT22;54114;53.524;49.396;2023-03-30T00:01:36;9.30;57.10
67182;DHT22;54114;53.524;49.396;2023-03-30T00:04:06;9.30;57.20
67182;DHT22;54114;53.524;49.396;2023-03-30T00:06:39;9.20;57.30
67182;DHT22;54114;53.524;49.396;2023-03-30T00:09:09;9.20;57.40
67182;DHT22;54114;53.524;49.396;2023-03-30T00:11:42;9.10;57.60
67182;DHT22;54114;53.524;49.396;2023-03-30T00:14:15;9.00;57.80
67182;DHT22;54114;53.524;49.396;2023-03-30T00:16:44;9.00;57.90
67182;DHT22;54114;53.524;49.396;2023-03-30T00:19:13;8.90;58.00
67182;DHT22;54114;53.524;49.396;2023-03-30T00:21:45;8.90;58.10
67182;DHT22;54114;53.524;49.396;2023-03-30T00:24:17;8.80;58.20
67182;DHT22;54114;53.524;49.396;2023-03-30T00:26:48;8.80;58.40
67182;DHT22;54114;53.524;49.396;2023-03-30T00:29:18;8.80;58.60
67182;DHT22;54114;53.524;49.396;2023-03-30T00:31:49;8.80;58.70
67182;DHT22;54114;53.524;49.396;2023-03-30T00:34:19;8.70;58.60
67182;DHT22;54114;53.524;49.396;2023-03-30T00:36:54;8.70;58.60
67182;DHT22;54114;53.524;49.396;2023-03-30T00:39:24;8.70;58.60
67182;DHT22;54114;53.524;49.396;2023-03-30T00:41:51;8.70;58.70
67182;DHT22;54114;53.524;49.396;2023-03-30T00:45:01;8.70;58.60
67182;DHT22;54114;53.524;49.396;2023-03-30T00:48:02;8.60;58.70
67182;DHT22;54114;53.524;49.396;2023-03-30T00:51:08;8.60;58.70
67182;DHT22;54114;53.524;49.396;2023-03-30T00:53:47;8.60;58.70
67182;DHT22;54114;53.524;49.396;2023-03-30T00:56:18;8.60;58.70
67182;DHT22;54114;53.524;49.396;2023-03-30T00:58:51;8.60;58.80
67182;DHT22;54114;53.524;49.396;2023-03-30T01:01:25;8.60;58.80
67182;DHT22;54114;53.524;49.396;2023-03-30T01:03:59;8.60;58.80
67182;DHT22;54114;53.524;49.396;2023-03-30T01:06:27;8.60;58.70
67182;DHT22;54114;53.524;49.396;2023-03-30T01:08:55;8.50;58.50
67182;DHT22;54114;53.524;49.396;2023-03-30T01:11:25;8.60;58.70
67182;DHT22;54114;53.524;49.396;2023-03-30T01:14:12;8.50;58.70
67182;DHT22;54114;53.524;49.396;2023-03-30T01:16:49;8.50;58.70
67182;DHT22;54114;53.524;49.396;2023-03-30T01:23:03;8.50;58.60
67182;DHT22;54114;53.524;49.396;2023-03-30T01:35:04;8.50;58.50
67182;DHT22;54114;53.524;49.396;2023-03-30T01:37:59;8.50;58.50
67182;DHT22;54114;53.524;49.396;2023-03-30T01:40:39;8.40;58.40
67182;DHT22;54114;53.524;49.396;2023-03-30T01:46:27;8.40;58.70
67182;DHT22;54114;53.524;49.396;2023-03-30T01:49:26;8.30;58.70
67182;DHT22;54114;53.524;49.396;2023-03-30T01:52:17;8.30;58.70
67182;DHT22;54114;53.524;49.396;2023-03-30T01:54:59;8.30;58.70
67182;DHT22;54114;53.524;49.396;2023-03-30T01:58:01;8.30;58.70
67182;DHT22;54114;53.524;49.396;2023-03-30T02:00:45;8.40;58.60
67182;DHT22;54114;53.524;49.396;2023-03-30T02:03:31;8.40;58.40
67182;DHT22;54114;53.524;49.396;2023-03-30T02:08:42;8.40;58.40
67182;DHT22;54114;53.524;49.396;2023-03-30T02:11:09;8.40;58.20
67182;DHT22;54114;53.524;49.396;2023-03-30T02:13:41;8.50;58.20
67182;DHT22;54114;53.524;49.396;2023-03-30T02:16:20;8.40;58.10
67182;DHT22;54114;53.524;49.396;2023-03-30T02:18:52;8.40;58.20
67182;DHT22;54114;53.524;49.396;2023-03-30T02:21:19;8.40;58.20
67182;DHT22;54114;53.524;49.396;2023-03-30T02:23:52;8.40;58.20
67182;DHT22;54114;53.524;49.396;2023-03-30T02:26:21;8.40;58.20
67182;DHT22;54114;53.524;49.396;2023-03-30T02:28:53;8.40;58.00
67182;DHT22;54114;53.524;49.396;2023-03-30T02:31:20;8.40;57.90
67182;DHT22;54114;53.524;49.396;2023-03-30T02:42:53;8.60;57.50
67182;DHT22;54114;53.524;49.396;2023-03-30T02:49:06;8.60;57.10
67182;DHT22;54114;53.524;49.396;2023-03-30T02:55:37;8.60;57.10
67182;DHT22;54114;53.524;49.396;2023-03-30T02:58:44;8.60;56.90
67182;DHT22;54114;53.524;49.396;2023-03-30T03:01:39;8.50;56.90
67182;DHT22;54114;53.524;49.396;2023-03-30T03:04:10;8.40;57.00
67182;DHT22;54114;53.524;49.396;2023-03-30T03:06:43;8.40;57.00
67182;DHT22;54114;53.524;49.396;2023-03-30T03:09:13;8.40;57.10
67182;DHT22;54114;53.524;49.396;2023-03-30T03:11:45;8.40;57.10
67182;DHT22;54114;53.524;49.396;2023-03-30T03:14:14;8.40;57.10
67182;DHT22;54114;53.524;49.396;2023-03-30T03:16:41;8.40;57.10
67182;DHT22;54114;53.524;49.396;2023-03-30T03:19:08;8.40;57.10
67182;DHT22;54114;53.524;49.396;2023-03-30T03:21:35;8.40;57.20
67182;DHT22;54114;53.524;49.396;2023-03-30T03:24:03;8.50;57.00
67182;DHT22;54114;53.524;49.396;2023-03-30T03:26:33;8.50;56.90
67182;DHT22;54114;53.524;49.396;2023-03-30T03:29:00;8.50;56.90
67182;DHT22;54114;53.524;49.396;2023-03-30T03:31:28;8.60;56.80
67182;DHT22;54114;53.524;49.396;2023-03-30T03:33:55;8.70;56.60
67182;DHT22;54114;53.524;49.396;2023-03-30T03:36:22;8.70;56.50
67182;DHT22;54114;53.524;49.396;2023-03-30T03:38:48;8.70;56.30
67182;DHT22;54114;53.524;49.396;2023-03-30T03:41:18;8.70;56.20
67182;DHT22;54114;53.524;49.396;2023-03-30T03:43:45;8.80;56.00
67182;DHT22;54114;53.524;49.396;2023-03-30T03:46:11;8.80;56.00
67182;DHT22;54114;53.524;49.396;2023-03-30T03:48:39;8.80;55.90
67182;DHT22;54114;53.524;49.396;2023-03-30T03:51:06;8.80;55.80
67182;DHT22;54114;53.524;49.396;2023-03-30T03:53:34;8.80;55.50
67182;DHT22;54114;53.524;49.396;2023-03-30T03:56:01;8.80;55.50
67182;DHT22;54114;53.524;49.396;2023-03-30T03:58:33;8.80;55.60
67182;DHT22;54114;53.524;49.396;2023-03-30T04:01:00;8.90;55.30
67182;DHT22;54114;53.524;49.396;2023-03-30T04:03:28;8.90;55.70
67182;DHT22;54114;53.524;49.396;2023-03-30T04:05:59;9.00;55.00
67182;DHT22;54114;53.524;49.396;2023-03-30T04:08:27;9.00;54.90
67182;DHT22;54114;53.524;49.396;2023-03-30T04:10:56;9.00;54.70
67182;DHT22;54114;53.524;49.396;2023-03-30T04:13:30;9.10;54.80
67182;DHT22;54114;53.524;49.396;2023-03-30T04:15:57;9.10;54.70
67182;DHT22;54114;53.524;49.396;2023-03-30T04:18:24;9.30;54.50
67182;DHT22;54114;53.524;49.396;2023-03-30T04:21:03;9.30;54.20
67182;DHT22;54114;53.524;49.396;2023-03-30T04:23:38;9.50;53.90
67182;DHT22;54114;53.524;49.396;2023-03-30T04:26:12;9.60;53.50
67182;DHT22;54114;53.524;49.396;2023-03-30T04:28:40;9.60;53.10
67182;DHT22;54114;53.524;49.396;2023-03-30T04:31:08;9.70;53.10
67182;DHT22;54114;53.524;49.396;2023-03-30T04:33:39;9.70;53.00
67182;DHT22;54114;53.524;49.396;2023-03-30T04:36:18;9.90;52.80
67182;DHT22;54114;53.524;49.396;2023-03-30T04:38:47;9.90;52.10
67182;DHT22;54114;53.524;49.396;2023-03-30T04:41:30;10.00;51.90
67182;DHT22;54114;53.524;49.396;2023-03-30T04:44:06;10.00;51.60
67182;DHT22;54114;53.524;49.396;2023-03-30T04:46:34;10.10;51.50
67182;DHT22;54114;53.524;49.396;2023-03-30T04:49:02;10.10;51.50
67182;DHT22;54114;53.524;49.396;2023-03-30T04:51:29;10.20;51.40
67182;DHT22;54114;53.524;49.396;2023-03-30T04:53:56;10.30;51.10
67182;DHT22;54114;53.524;49.396;2023-03-30T04:56:26;10.40;50.60
67182;DHT22;54114;53.524;49.396;2023-03-30T04:58:52;10.50;50.30
67182;DHT22;54114;53.524;49.396;2023-03-30T05:01:19;10.50;50.10
67182;DHT22;54114;53.524;49.396;2023-03-30T05:03:46;10.60;49.80
67182;DHT22;54114;53.524;49.396;2023-03-30T05:06:12;10.70;49.60
67182;DHT22;54114;53.524;49.396;2023-03-30T05:08:39;10.70;49.40
67182;DHT22;54114;53.524;49.396;2023-03-30T05:11:06;10.80;49.20
67182;DHT22;54114;53.524;49.396;2023-03-30T05:13:32;10.80;48.90
67182;DHT22;54114;53.524;49.396;2023-03-30T05:15:59;10.90;49.00
67182;DHT22;54114;53.524;49.396;2023-03-30T05:18:26;11.20;48.80
67182;DHT22;54114;53.524;49.396;2023-03-30T05:20:56;11.30;48.20
67182;DHT22;54114;53.524;49.396;2023-03-30T05:23:24;11.60;47.80
67182;DHT22;54114;53.524;49.396;2023-03-30T05:25:51;11.80;47.10
67182;DHT22;54114;53.524;49.396;2023-03-30T05:28:20;12.00;46.40
67182;DHT22;54114;53.524;49.396;2023-03-30T05:30:54;12.20;46.40
67182;DHT22;54114;53.524;49.396;2023-03-30T05:33:22;12.40;45.60
67182;DHT22;54114;53.524;49.396;2023-03-30T05:35:49;12.60;45.00
67182;DHT22;54114;53.524;49.396;2023-03-30T05:38:16;12.90;44.80
67182;DHT22;54114;53.524;49.396;2023-03-30T05:40:46;13.10;44.30
67182;DHT22;54114;53.524;49.396;2023-03-30T05:43:18;13.40;44.10
67182;DHT22;54114;53.524;49.396;2023-03-30T05:45:44;13.80;43.70
67182;DHT22;54114;53.524;49.396;2023-03-30T05:48:11;14.20;42.80
67182;DHT22;54114;53.524;49.396;2023-03-30T05:50:38;14.60;41.90
67182;DHT22;54114;53.524;49.396;2023-03-30T05:53:04;14.80;41.40
67182;DHT22;54114;53.524;49.396;2023-03-30T05:55:31;15.00;41.10
67182;DHT22;54114;53.524;49.396;2023-03-30T05:58:00;15.20;39.90
67182;DHT22;54114;53.524;49.396;2023-03-30T06:00:30;15.30;39.60
67182;DHT22;54114;53.524;49.396;2023-03-30T06:03:01;15.60;39.40
67182;DHT22;54114;53.524;49.396;2023-03-30T06:05:30;16.10;38.60
67182;DHT22;54114;53.524;49.396;2023-03-30T06:07:58;16.60;37.80
67182;DHT22;54114;53.524;49.396;2023-03-30T06:10:26;16.80;37.00
67182;DHT22;54114;53.524;49.396;2023-03-30T06:12:52;16.80;36.50
67182;DHT22;54114;53.524;49.396;2023-03-30T06:15:19;16.90;36.70
67182;DHT22;54114;53.524;49.396;2023-03-30T06:17:46;17.20;36.60
67182;DHT22;54114;53.524;49.396;2023-03-30T06:20:13;17.30;35.80
67182;DHT22;54114;53.524;49.396;2023-03-30T06:22:40;17.40;35.50
67182;DHT22;54114;53.524;49.396;2023-03-30T06:25:07;17.50;35.40
67182;DHT22;54114;53.524;49.396;2023-03-30T06:27:35;17.50;35.10
67182;DHT22;54114;53.524;49.396;2023-03-30T06:30:02;17.60;35.10
67182;DHT22;54114;53.524;49.396;2023-03-30T06:32:29;17.80;34.90
67182;DHT22;54114;53.524;49.396;2023-03-30T06:34:56;18.00;34.60
67182;DHT22;54114;53.524;49.396;2023-03-30T06:37:23;18.20;33.90
67182;DHT22;54114;53.524;49.396;2023-03-30T06:39:50;18.30;33.80
67182;DHT22;54114;53.524;49.396;2023-03-30T06:42:17;18.50;33.40
67182;DHT22;54114;53.524;49.396;2023-03-30T06:44:46;18.60;32.80
67182;DHT22;54114;53.524;49.396;2023-03-30T06:47:13;18.70;32.80
67182;DHT22;54114;53.524;49.396;2023-03-30T06:49:40;18.90;32.80
67182;DHT22;54114;53.524;49.396;2023-03-30T06:52:07;19.10;32.70
67182;DHT22;54114;53.524;49.396;2023-03-30T06:54:34;19.10;32.10
67182;DHT22;54114;53.524;49.396;2023-03-30T06:57:01;19.20;32.10
67182;DHT22;54114;53.524;49.396;2023-03-30T06:59:27;19.40;31.90
67182;DHT22;54114;53.524;49.396;2023-03-30T07:01:56;19.60;31.80
67182;DHT22;54114;53.524;49.396;2023-03-30T07:04:23;19.90;31.60
67182;DHT22;54114;53.524;49.396;2023-03-30T07:06:50;20.10;31.10
67182;DHT22;54114;53.524;49.396;2023-03-30T07:09:17;20.20;30.80
67182;DHT22;54114;53.524;49.396;2023-03-30T07:11:44;19.90;30.50
67182;DHT22;54114;53.524;49.396;2023-03-30T07:14:13;19.70;30.70
67182;DHT22;54114;53.524;49.396;2023-03-30T07:16:40;19.60;30.80
67182;DHT22;54114;53.524;49.396;2023-03-30T07:19:07;19.50;31.20
67182;DHT22;54114;53.524;49.396;2023-03-30T07:21:36;19.60;31.30
67182;DHT22;54114;53.524;49.396;2023-03-30T07:24:03;19.60;30.70
67182;DHT22;54114;53.524;49.396;2023-03-30T07:26:30;19.60;30.70
67182;DHT22;54114;53.524;49.396;2023-03-30T07:28:57;19.60;30.90
67182;DHT22;54114;53.524;49.396;2023-03-30T07:31:25;19.80;30.80
67182;DHT22;54114;53.524;49.396;2023-03-30T07:33:54;20.00;30.20
67182;DHT22;54114;53.524;49.396;2023-03-30T07:36:21;20.10;30.10
67182;DHT22;54114;53.524;49.396;2023-03-30T07:38:51;20.20;31.00
67182;DHT22;54114;53.524;49.396;2023-03-30T07:41:20;20.10;30.00
67182;DHT22;54114;53.524;49.396;2023-03-30T07:43:47;19.90;30.00
67182;DHT22;54114;53.524;49.396;2023-03-30T07:46:14;19.80;31.00
67182;DHT22;54114;53.524;49.396;2023-03-30T07:48:40;19.90;30.50
67182;DHT22;54114;53.524;49.396;2023-03-30T07:51:10;20.00;30.10
67182;DHT22;54114;53.524;49.396;2023-03-30T07:53:38;20.00;30.20
67182;DHT22;54114;53.524;49.396;2023-03-30T07:56:06;20.20;30.10
67182;DHT22;54114;53.524;49.396;2023-03-30T07:58:33;20.50;30.00
67182;DHT22;54114;53.524;49.396;2023-03-30T08:01:00;20.90;29.90
67182;DHT22;54114;53.524;49.396;2023-03-30T08:03:28;21.20;29.50
67182;DHT22;54114;53.524;49.396;2023-03-30T08:06:02;21.50;29.20
67182;DHT22;54114;53.524;49.396;2023-03-30T08:08:31;21.60;29.10
67182;DHT22;54114;53.524;49.396;2023-03-30T08:10:59;21.60;28.90
67182;DHT22;54114;53.524;49.396;2023-03-30T08:13:28;21.80;28.90
67182;DHT22;54114;53.524;49.396;2023-03-30T08:15:55;22.20;28.70
67182;DHT22;54114;53.524;49.396;2023-03-30T08:18:21;22.50;28.50
67182;DHT22;54114;53.524;49.396;2023-03-30T08:20:52;22.80;28.10
67182;DHT22;54114;53.524;49.396;2023-03-30T08:23:20;23.00;28.00
67182;DHT22;54114;53.524;49.396;2023-03-30T08:25:49;23.30;27.70
67182;DHT22;54114;53.524;49.396;2023-03-30T08:28:21;23.30;27.60
67182;DHT22;54114;53.524;49.396;2023-03-30T08:30:48;23.30;27.50
67182;DHT22;54114;53.524;49.396;2023-03-30T08:33:15;23.30;27.50
67182;DHT22;54114;53.524;49.396;2023-03-30T08:35:47;23.20;27.50
67182;DHT22;54114;53.524;49.396;2023-03-30T08:38:14;22.90;27.50
67182;DHT22;54114;53.524;49.396;2023-03-30T08:40:46;22.70;27.60
67182;DHT22;54114;53.524;49.396;2023-03-30T08:45:47;22.20;27.80
67182;DHT22;54114;53.524;49.396;2023-03-30T08:48:21;22.00;27.90
67182;DHT22;54114;53.524;49.396;2023-03-30T08:50:58;21.90;28.10
67182;DHT22;54114;53.524;49.396;2023-03-30T08:53:28;21.80;28.10
67182;DHT22;54114;53.524;49.396;2023-03-30T09:04:31;21.40;28.40
67182;DHT22;54114;53.524;49.396;2023-03-30T09:07:16;21.40;28.60
67182;DHT22;54114;53.524;49.396;2023-03-30T09:09:48;21.60;28.50
67182;DHT22;54114;53.524;49.396;2023-03-30T09:12:55;21.60;28.30
67182;DHT22;54114;53.524;49.396;2023-03-30T09:15:35;21.70;28.30
67182;DHT22;54114;53.524;49.396;2023-03-30T09:20:56;21.90;28.40
67182;DHT22;54114;53.524;49.396;2023-03-30T09:23:44;21.90;28.20
67182;DHT22;54114;53.524;49.396;2023-03-30T09:26:57;22.10;28.10
67182;DHT22;54114;53.524;49.396;2023-03-30T09:29:32;22.30;28.00
67182;DHT22;54114;53.524;49.396;2023-03-30T09:32:27;22.10;27.90
67182;DHT22;54114;53.524;49.396;2023-03-30T09:35:13;21.80;28.00
67182;DHT22;54114;53.524;49.396;2023-03-30T09:37:41;21.50;28.30
67182;DHT22;54114;53.524;49.396;2023-03-30T09:45:49;20.90;29.00
67182;DHT22;54114;53.524;49.396;2023-03-30T09:48:19;20.80;29.10
67182;DHT22;54114;53.524;49.396;2023-03-30T09:50:48;20.70;29.10
67182;DHT22;54114;53.524;49.396;2023-03-30T09:53:26;20.60;29.20
67182;DHT22;54114;53.524;49.396;2023-03-30T09:56:06;20.60;29.30
67182;DHT22;54114;53.524;49.396;2023-03-30T09:58:39;20.50;29.30
67182;DHT22;54114;53.524;49.396;2023-03-30T10:01:16;20.40;29.40
67182;DHT22;54114;53.524;49.396;2023-03-30T10:04:03;20.30;29.50
67182;DHT22;54114;53.524;49.396;2023-03-30T10:06:38;20.10;30.00
67182;DHT22;54114;53.524;49.396;2023-03-30T10:09:12;20.00;29.80
67182;DHT22;54114;53.524;49.396;2023-03-30T10:11:44;20.00;30.00
67182;DHT22;54114;53.524;49.396;2023-03-30T10:14:29;20.00;30.00
67182;DHT22;54114;53.524;49.396;2023-03-30T10:16:58;20.20;30.60
67182;DHT22;54114;53.524;49.396;2023-03-30T10:19:25;20.40;29.80
67182;DHT22;54114;53.524;49.396;2023-03-30T10:21:54;20.60;29.80
67182;DHT22;54114;53.524;49.396;2023-03-30T10:24:24;20.80;29.50
67182;DHT22;54114;53.524;49.396;2023-03-30T10:27:02;21.10;29.30
67182;DHT22;54114;53.524;49.396;2023-03-30T10:29:35;21.30;29.20
67182;DHT22;54114;53.524;49.396;2023-03-30T10:32:31;21.40;28.90
67182;DHT22;54114;53.524;49.396;2023-03-30T10:34:59;21.50;29.00
67182;DHT22;54114;53.524;49.396;2023-03-30T10:37:37;21.60;29.00
67182;DHT22;54114;53.524;49.396;2023-03-30T10:42:51;21.80;28.80
67182;DHT22;54114;53.524;49.396;2023-03-30T10:45:33;21.80;28.60
67182;DHT22;54114;53.524;49.396;2023-03-30T10:48:13;21.90;28.60
67182;DHT22;54114;53.524;49.396;2023-03-30T10:54:01;22.10;28.30
67182;DHT22;54114;53.524;49.396;2023-03-30T10:56:47;22.20;28.30
67182;DHT22;54114;53.524;49.396;2023-03-30T11:05:49;22.80;28.00
67182;DHT22;54114;53.524;49.396;2023-03-30T11:08:24;23.10;27.80
67182;DHT22;54114;53.524;49.396;2023-03-30T11:10:57;23.20;27.60
67182;DHT22;54114;53.524;49.396;2023-03-30T11:13:41;23.10;27.60
67182;DHT22;54114;53.524;49.396;2023-03-30T11:16:24;22.90;27.60
67182;DHT22;54114;53.524;49.396;2023-03-30T11:19:21;22.80;27.80
67182;DHT22;54114;53.524;49.396;2023-03-30T11:25:21;22.50;28.10
67182;DHT22;54114;53.524;49.396;2023-03-30T11:27:58;22.10;28.20
67182;DHT22;54114;53.524;49.396;2023-03-30T11:30:34;21.80;28.60
67182;DHT22;54114;53.524;49.396;2023-03-30T11:36:04;21.60;29.10
67182;DHT22;54114;53.524;49.396;2023-03-30T11:38:56;21.60;29.20
67182;DHT22;54114;53.524;49.396;2023-03-30T11:44:25;21.60;29.40
67182;DHT22;54114;53.524;49.396;2023-03-30T11:56:09;21.30;30.00
67182;DHT22;54114;53.524;49.396;2023-03-30T11:58:46;21.40;29.90
67182;DHT22;54114;53.524;49.396;2023-03-30T12:04:55;21.60;29.90
67182;DHT22;54114;53.524;49.396;2023-03-30T12:07:38;21.70;29.80
67182;DHT22;54114;53.524;49.396;2023-03-30T12:10:36;21.40;29.80
67182;DHT22;54114;53.524;49.396;2023-03-30T12:13:12;21.10;30.10
67182;DHT22;54114;53.524;49.396;2023-03-30T12:16:07;21.00;30.40
67182;DHT22;54114;53.524;49.396;2023-03-30T12:19:06;20.80;30.60
67182;DHT22;54114;53.524;49.396;2023-03-30T12:22:06;20.70;31.00
67182;DHT22;54114;53.524;49.396;2023-03-30T12:24:50;20.40;31.30
67182;DHT22;54114;53.524;49.396;2023-03-30T12:28:09;20.20;31.50
67182;DHT22;54114;53.524;49.396;2023-03-30T12:30:59;20.00;31.90
67182;DHT22;54114;53.524;49.396;2023-03-30T12:33:36;20.00;32.20
67182;DHT22;54114;53.524;49.396;2023-03-30T12:36:34;20.00;32.20
67182;DHT22;54114;53.524;49.396;2023-03-30T12:39:27;19.90;32.30
67182;DHT22;54114;53.524;49.396;2023-03-30T12:44:44;19.70;32.90
67182;DHT22;54114;53.524;49.396;2023-03-30T12:47:39;19.60;33.10
67182;DHT22;54114;53.524;49.396;2023-03-30T12:54:27;19.40;34.00
67182;DHT22;54114;53.524;49.396;2023-03-30T12:57:29;19.40;33.60
67182;DHT22;54114;53.524;49.396;2023-03-30T13:38:18;18.10;36.80
67182;DHT22;54114;53.524;49.396;2023-03-30T13:41:10;18.00;37.10
67182;DHT22;54114;53.524;49.396;2023-03-30T13:46:53;17.70;37.70
67182;DHT22;54114;53.524;49.396;2023-03-30T13:52:37;17.50;38.00
67182;DHT22;54114;53.524;49.396;2023-03-30T13:55:39;17.50;38.20
67182;DHT22;54114;53.524;49.396;2023-03-30T13:58:22;17.50;38.40
67182;DHT22;54114;53.524;49.396;2023-03-30T14:01:04;17.40;38.60
67182;DHT22;54114;53.524;49.396;2023-03-30T14:03:47;17.30;38.70
67182;DHT22;54114;53.524;49.396;2023-03-30T14:06:19;17.30;38.90
67182;DHT22;54114;53.524;49.396;2023-03-30T14:09:07;17.20;39.00
67182;DHT22;54114;53.524;49.396;2023-03-30T14:11:49;17.20;39.20
67182;DHT22;54114;53.524;49.396;2023-03-30T14:14:25;17.10;39.30
67182;DHT22;54114;53.524;49.396;2023-03-30T14:17:22;17.00;39.60
67182;DHT22;54114;53.524;49.396;2023-03-30T14:20:19;16.90;39.80
67182;DHT22;54114;53.524;49.396;2023-03-30T14:22:48;16.80;40.10
67182;DHT22;54114;53.524;49.396;2023-03-30T14:25:25;16.70;40.30
67182;DHT22;54114;53.524;49.396;2023-03-30T14:27:56;16.60;40.50
67182;DHT22;54114;53.524;49.396;2023-03-30T14:30:28;16.50;40.70
67182;DHT22;54114;53.524;49.396;2023-03-30T14:33:13;16.40;40.90
67182;DHT22;54114;53.524;49.396;2023-03-30T14:36:01;16.30;41.00
67182;DHT22;54114;53.524;49.396;2023-03-30T14:38:31;16.30;41.10
67182;DHT22;54114;53.524;49.396;2023-03-30T14:41:17;16.20;41.20
67182;DHT22;54114;53.524;49.396;2023-03-30T14:44:05;16.20;41.30
67182;DHT22;54114;53.524;49.396;2023-03-30T14:46:47;16.20;41.40
67182;DHT22;54114;53.524;49.396;2023-03-30T14:49:20;16.20;41.40
67182;DHT22;54114;53.524;49.396;2023-03-30T14:52:02;16.10;41.40
67182;DHT22;54114;53.524;49.396;2023-03-30T14:54:39;16.10;41.60
67182;DHT22;54114;53.524;49.396;2023-03-30T14:57:08;16.00;42.30
67182;DHT22;54114;53.524;49.396;2023-03-30T14:59:45;16.00;41.90
67182;DHT22;54114;53.524;49.396;2023-03-30T15:02:29;15.90;42.10
67182;DHT22;54114;53.524;49.396;2023-03-30T15:05:03;15.80;42.30
67182;DHT22;54114;53.524;49.396;2023-03-30T15:07:34;15.70;42.50
67182;DHT22;54114;53.524;49.396;2023-03-30T15:10:03;15.60;42.50
67182;DHT22;54114;53.524;49.396;2023-03-30T15:12:38;15.50;42.70
67182;DHT22;54114;53.524;49.396;2023-03-30T15:15:10;15.50;43.00
67182;DHT22;54114;53.524;49.396;2023-03-30T15:17:46;15.40;43.10
67182;DHT22;54114;53.524;49.396;2023-03-30T15:20:14;15.40;43.30
67182;DHT22;54114;53.524;49.396;2023-03-30T15:22:47;15.30;43.80
67182;DHT22;54114;53.524;49.396;2023-03-30T15:25:36;15.20;43.90
67182;DHT22;54114;53.524;49.396;2023-03-30T15:28:08;15.10;43.90
67182;DHT22;54114;53.524;49.396;2023-03-30T15:30:40;15.00;44.00
67182;DHT22;54114;53.524;49.396;2023-03-30T15:33:34;15.00;44.00
67182;DHT22;54114;53.524;49.396;2023-03-30T15:36:51;15.10;44.20
67182;DHT22;54114;53.524;49.396;2023-03-30T15:39:26;15.00;44.20
67182;DHT22;54114;53.524;49.396;2023-03-30T15:42:03;15.00;44.30
67182;DHT22;54114;53.524;49.396;2023-03-30T15:44:41;15.00;44.40
67182;DHT22;54114;53.524;49.396;2023-03-30T15:47:17;14.90;44.50
67182;DHT22;54114;53.524;49.396;2023-03-30T15:49:51;14.90;44.60
67182;DHT22;54114;53.524;49.396;2023-03-30T15:52:35;14.90;44.60
67182;DHT22;54114;53.524;49.396;2023-03-30T15:55:18;14.80;44.80
67182;DHT22;54114;53.524;49.396;2023-03-30T15:57:50;14.80;44.90
67182;DHT22;54114;53.524;49.396;2023-03-30T16:00:20;14.80;45.00
67182;DHT22;54114;53.524;49.396;2023-03-30T16:02:57;14.80;45.00
67182;DHT22;54114;53.524;49.396;2023-03-30T16:05:32;14.80;45.10
67182;DHT22;54114;53.524;49.396;2023-03-30T16:08:01;14.80;45.80
67182;DHT22;54114;53.524;49.396;2023-03-30T16:10:36;14.70;45.40
67182;DHT22;54114;53.524;49.396;2023-03-30T16:13:12;14.60;45.60
67182;DHT22;54114;53.524;49.396;2023-03-30T16:15:39;14.50;45.70
67182;DHT22;54114;53.524;49.396;2023-03-30T16:18:09;14.50;45.90
67182;DHT22;54114;53.524;49.396;2023-03-30T16:20:41;14.40;45.90
67182;DHT22;54114;53.524;49.396;2023-03-30T16:23:10;14.40;46.10
67182;DHT22;54114;53.524;49.396;2023-03-30T16:25:41;14.30;46.40
67182;DHT22;54114;53.524;49.396;2023-03-30T16:28:20;14.30;46.40
67182;DHT22;54114;53.524;49.396;2023-03-30T16:30:56;14.30;46.60
67182;DHT22;54114;53.524;49.396;2023-03-30T16:33:25;14.30;46.60
67182;DHT22;54114;53.524;49.396;2023-03-30T16:35:52;14.20;46.70
67182;DHT22;54114;53.524;49.396;2023-03-30T16:38:18;14.20;47.00
67182;DHT22;54114;53.524;49.396;2023-03-30T16:40:51;14.00;47.10
67182;DHT22;54114;53.524;49.396;2023-03-30T16:43:20;14.00;47.30
67182;DHT22;54114;53.524;49.396;2023-03-30T16:45:46;13.90;47.50
67182;DHT22;54114;53.524;49.396;2023-03-30T16:48:13;13.90;47.60
67182;DHT22;54114;53.524;49.396;2023-03-30T16:50:51;13.90;47.70
67182;DHT22;54114;53.524;49.396;2023-03-30T16:53:18;13.80;47.60
67182;DHT22;54114;53.524;49.396;2023-03-30T16:55:45;13.90;47.60
67182;DHT22;54114;53.524;49.396;2023-03-30T16:58:13;13.90;47.60
67182;DHT22;54114;53.524;49.396;2023-03-30T17:00:48;13.80;47.60
67182;DHT22;54114;53.524;49.396;2023-03-30T17:03:18;13.80;47.70
67182;DHT22;54114;53.524;49.396;2023-03-30T17:05:46;13.80;47.80
67182;DHT22;54114;53.524;49.396;2023-03-30T17:08:24;13.70;47.80
67182;DHT22;54114;53.524;49.396;2023-03-30T17:10:55;13.80;48.00
67182;DHT22;54114;53.524;49.396;2023-03-30T17:13:26;13.70;48.20
67182;DHT22;54114;53.524;49.396;2023-03-30T17:16:02;13.70;48.20
67182;DHT22;54114;53.524;49.396;2023-03-30T17:18:34;13.70;48.30
67182;DHT22;54114;53.524;49.396;2023-03-30T17:21:03;13.70;48.60
67182;DHT22;54114;53.524;49.396;2023-03-30T17:23:41;13.60;48.50
67182;DHT22;54114;53.524;49.396;2023-03-30T17:26:10;13.50;48.60
67182;DHT22;54114;53.524;49.396;2023-03-30T17:28:41;13.50;48.80
67182;DHT22;54114;53.524;49.396;2023-03-30T17:31:23;13.50;48.90
67182;DHT22;54114;53.524;49.396;2023-03-30T17:33:53;13.40;49.00
67182;DHT22;54114;53.524;49.396;2023-03-30T17:36:28;13.40;49.00
67182;DHT22;54114;53.524;49.396;2023-03-30T17:39:00;13.40;49.00
67182;DHT22;54114;53.524;49.396;2023-03-30T17:41:29;13.40;49.10
67182;DHT22;54114;53.524;49.396;2023-03-30T17:44:01;13.40;49.20
67182;DHT22;54114;53.524;49.396;2023-03-30T17:46:33;13.40;49.20
67182;DHT22;54114;53.524;49.396;2023-03-30T17:49:03;13.30;49.40
67182;DHT22;54114;53.524;49.396;2023-03-30T17:51:29;13.20;49.50
67182;DHT22;54114;53.524;49.396;2023-03-30T17:53:58;13.20;49.70
67182;DHT22;54114;53.524;49.396;2023-03-30T17:56:27;13.10;49.80
67182;DHT22;54114;53.524;49.396;2023-03-30T17:58:57;13.10;49.90
67182;DHT22;54114;53.524;49.396;2023-03-30T18:01:26;13.10;49.90
67182;DHT22;54114;53.524;49.396;2023-03-30T18:03:53;13.10;49.80
67182;DHT22;54114;53.524;49.396;2023-03-30T18:06:24;13.20;49.80
67182;DHT22;54114;53.524;49.396;2023-03-30T18:08:54;13.20;49.80
67182;DHT22;54114;53.524;49.396;2023-03-30T18:11:26;13.10;49.80
67182;DHT22;54114;53.524;49.396;2023-03-30T18:13:55;13.10;49.90
67182;DHT22;54114;53.524;49.396;2023-03-30T18:16:25;13.10;50.00
67182;DHT22;54114;53.524;49.396;2023-03-30T18:18:52;13.10;50.00
67182;DHT22;54114;53.524;49.396;2023-03-30T18:21:24;13.00;50.00
67182;DHT22;54114;53.524;49.396;2023-03-30T18:23:53;13.00;50.10